sensor_id;sensor_type;location;lat;lon;timestamp;pressure;altitude;pressure_sealevel;temperature;humidity
64192;BME280;50497;50.720;-2.084;2023-05-07T00:00:14;102637.88;;;11.23;100.00
64192;BME280;50497;50.720;-2.084;2023-05-07T00:02:44;102621.94;;;11.17;100.00
64192;BME280;50497;50.720;-2.084;2023-05-07T00:05:10;102618.44;;;11.12;100.00
64192;BME280;50497;50.720;-2.084;2023-05-07T00:07:35;102645.88;;;11.25;100.00
64192;BME280;50497;50.720;-2.084;2023-05-07T00:10:02;102643.25;;;11.22;100.00
64192;BME280;50497;50.720;-2.084;2023-05-07T00:12:27;102648.47;;;11.30;100.00
64192;BME280;50497;50.720;-2.084;2023-05-07T00:14:55;102647.59;;;11.29;100.00
64192;BME280;50497;50.720;-2.084;2023-05-07T00:17:21;102632.56;;;11.20;100.00
64192;BME280;50497;50.720;-2.084;2023-05-07T00:19:46;102643.16;;;11.26;100.00
64192;BME280;50497;50.720;-2.084;2023-05-07T00:22:12;102628.16;;;11.18;100.00
64192;BME280;50497;50.720;-2.084;2023-05-07T00:24:38;102641.34;;;11.28;100.00
64192;BME280;50497;50.720;-2.084;2023-05-07T00:27:04;102658.06;;;11.41;100.00
64192;BME280;50497;50.720;-2.084;2023-05-07T00:29:30;102658.16;;;11.35;100.00
64192;BME280;50497;50.720;-2.084;2023-05-07T00:31:56;102662.13;;;11.17;100.00
64192;BME280;50497;50.720;-2.084;2023-05-07T00:34:21;102630.22;;;11.03;100.00
64192;BME280;50497;50.720;-2.084;2023-05-07T00:36:48;102647.75;;;11.20;100.00
64192;BME280;50497;50.720;-2.084;2023-05-07T00:39:13;102653.88;;;11.26;100.00
64192;BME280;50497;50.720;-2.084;2023-05-07T00:41:39;102618.44;;;11.12;100.00
64192;BME280;50497;50.720;-2.084;2023-05-07T00:44:08;102648.75;;;11.16;100.00
64192;BME280;50497;50.720;-2.084;2023-05-07T00:46:38;102646.84;;;11.22;100.00
64192;BME280;50497;50.720;-2.084;2023-05-07T00:49:04;102636.22;;;11.16;100.00
64192;BME280;50497;50.720;-2.084;2023-05-07T00:51:32;102623.69;;;11.18;100.00
64192;BME280;50497;50.720;-2.084;2023-05-07T00:54:00;102629.88;;;11.20;100.00
64192;BME280;50497;50.720;-2.084;2023-05-07T00:56:27;102619.94;;;11.25;100.00
64192;BME280;50497;50.720;-2.084;2023-05-07T00:58:53;102623.72;;;11.15;100.00
64192;BME280;50497;50.720;-2.084;2023-05-07T01:01:19;102493.38;;;11.16;100.00
64192;BME280;50497;50.720;-2.084;2023-05-07T01:03:46;102485.13;;;11.23;100.00
64192;BME280;50497;50.720;-2.084;2023-05-07T01:06:13;102477.09;;;11.23;100.00
64192;BME280;50497;50.720;-2.084;2023-05-07T01:08:42;102485.06;;;11.26;100.00
64192;BME280;50497;50.720;-2.084;2023-05-07T01:11:12;102474.34;;;11.26;100.00
64192;BME280;50497;50.720;-2.084;2023-05-07T01:13:39;102473.47;;;11.27;100.00
64192;BME280;50497;50.720;-2.084;2023-05-07T01:16:11;102468.22;;;11.21;100.00
64192;BME280;50497;50.720;-2.084;2023-05-07T01:18:50;102474.31;;;11.28;100.00
64192;BME280;50497;50.720;-2.084;2023-05-07T01:21:17;102472.72;;;11.21;100.00
64192;BME280;50497;50.720;-2.084;2023-05-07T01:23:47;102476.00;;;11.32;100.00
64192;BME280;50497;50.720;-2.084;2023-05-07T01:26:13;102478.78;;;11.29;100.00
64192;BME280;50497;50.720;-2.084;2023-05-07T01:28:38;102481.44;;;11.31;100.00
64192;BME280;50497;50.720;-2.084;2023-05-07T01:31:04;102471.69;;;11.26;100.00
64192;BME280;50497;50.720;-2.084;2023-05-07T01:33:33;102481.31;;;11.35;100.00
64192;BME280;50497;50.720;-2.084;2023-05-07T01:36:04;102482.25;;;11.34;100.00
64192;BME280;50497;50.720;-2.084;2023-05-07T01:38:32;102444.31;;;11.12;100.00
64192;BME280;50497;50.720;-2.084;2023-05-07T01:40:58;102472.53;;;11.28;100.00
64192;BME280;50497;50.720;-2.084;2023-05-07T01:43:29;102471.69;;;11.26;100.00
64192;BME280;50497;50.720;-2.084;2023-05-07T01:45:55;102474.28;;;11.30;100.00
64192;BME280;50497;50.720;-2.084;2023-05-07T01:48:22;102481.31;;;11.35;100.00
64192;BME280;50497;50.720;-2.084;2023-05-07T01:50:52;102476.78;;;11.39;100.00
64192;BME280;50497;50.720;-2.084;2023-05-07T01:53:18;102476.53;;;11.48;100.00
64192;BME280;50497;50.720;-2.084;2023-05-07T01:55:43;102471.25;;;11.45;100.00
64192;BME280;50497;50.720;-2.084;2023-05-07T01:58:09;102471.31;;;11.42;100.00
64192;BME280;50497;50.720;-2.084;2023-05-07T02:00:35;102479.34;;;11.42;100.00
64192;BME280;50497;50.720;-2.084;2023-05-07T02:03:04;102485.59;;;11.44;100.00
64192;BME280;50497;50.720;-2.084;2023-05-07T02:05:34;102474.16;;;11.36;100.00
64192;BME280;50497;50.720;-2.084;2023-05-07T02:07:59;102478.69;;;11.32;100.00
64192;BME280;50497;50.720;-2.084;2023-05-07T02:10:25;102485.03;;;11.28;100.00
64192;BME280;50497;50.720;-2.084;2023-05-07T02:12:50;102491.22;;;11.32;100.00
64192;BME280;50497;50.720;-2.084;2023-05-07T02:15:16;102464.16;;;11.03;100.00
64192;BME280;50497;50.720;-2.084;2023-05-07T02:18:06;102495.91;;;11.20;100.00
64192;BME280;50497;50.720;-2.084;2023-05-07T02:20:35;102504.75;;;11.25;100.00
64192;BME280;50497;50.720;-2.084;2023-05-07T02:23:01;102513.69;;;11.26;100.00
64192;BME280;50497;50.720;-2.084;2023-05-07T02:25:27;102516.31;;;11.27;100.00
64192;BME280;50497;50.720;-2.084;2023-05-07T02:27:52;102483.84;;;11.02;100.00
64192;BME280;50497;50.720;-2.084;2023-05-07T02:30:18;102518.41;;;11.13;100.00
64192;BME280;50497;50.720;-2.084;2023-05-07T02:32:47;102517.47;;;11.16;100.00
64192;BME280;50497;50.720;-2.084;2023-05-07T02:35:12;102533.59;;;11.14;100.00
64192;BME280;50497;50.720;-2.084;2023-05-07T02:37:42;102526.28;;;11.21;100.00
64192;BME280;50497;50.720;-2.084;2023-05-07T02:40:12;102528.91;;;11.24;100.00
64192;BME280;50497;50.720;-2.084;2023-05-07T02:42:39;102531.69;;;11.19;100.00
64192;BME280;50497;50.720;-2.084;2023-05-07T02:45:05;102532.53;;;11.21;100.00
64192;BME280;50497;50.720;-2.084;2023-05-07T02:47:32;102528.19;;;11.16;100.00
64192;BME280;50497;50.720;-2.084;2023-05-07T02:49:57;102531.50;;;11.27;100.00
64192;BME280;50497;50.720;-2.084;2023-05-07T02:52:22;102533.31;;;11.26;100.00
64192;BME280;50497;50.720;-2.084;2023-05-07T02:54:48;102532.59;;;11.18;100.00
64192;BME280;50497;50.720;-2.084;2023-05-07T02:57:14;102538.59;;;11.30;100.00
64192;BME280;50497;50.720;-2.084;2023-05-07T02:59:40;102542.25;;;11.25;100.00
64192;BME280;50497;50.720;-2.084;2023-05-07T03:02:06;102543.09;;;11.29;100.00
64192;BME280;50497;50.720;-2.084;2023-05-07T03:04:31;102547.47;;;11.33;100.00
64192;BME280;50497;50.720;-2.084;2023-05-07T03:06:57;102550.97;;;11.35;100.00
64192;BME280;50497;50.720;-2.084;2023-05-07T03:09:22;102553.81;;;11.29;100.00
64192;BME280;50497;50.720;-2.084;2023-05-07T03:11:52;102545.69;;;11.32;100.00
64192;BME280;50497;50.720;-2.084;2023-05-07T03:14:18;102555.56;;;11.30;100.00
64192;BME280;50497;50.720;-2.084;2023-05-07T03:16:43;102560.88;;;11.32;100.00
64192;BME280;50497;50.720;-2.084;2023-05-07T03:19:13;102531.78;;;11.15;100.00
64192;BME280;50497;50.720;-2.084;2023-05-07T03:21:38;102556.50;;;11.29;100.00
64192;BME280;50497;50.720;-2.084;2023-05-07T03:24:04;102535.38;;;11.12;100.00
64192;BME280;50497;50.720;-2.084;2023-05-07T03:26:30;102518.56;;;11.05;100.00
64192;BME280;50497;50.720;-2.084;2023-05-07T03:28:57;102562.72;;;11.30;100.00
64192;BME280;50497;50.720;-2.084;2023-05-07T03:31:26;102562.78;;;11.26;100.00
64192;BME280;50497;50.720;-2.084;2023-05-07T03:33:53;102536.25;;;11.14;100.00
64192;BME280;50497;50.720;-2.084;2023-05-07T03:36:19;102564.56;;;11.27;100.00
64192;BME280;50497;50.720;-2.084;2023-05-07T03:38:45;102540.63;;;11.18;100.00
64192;BME280;50497;50.720;-2.084;2023-05-07T03:41:14;102555.75;;;11.22;100.00
64192;BME280;50497;50.720;-2.084;2023-05-07T03:43:40;102568.91;;;11.33;100.00
64192;BME280;50497;50.720;-2.084;2023-05-07T03:46:06;102568.03;;;11.33;100.00
64192;BME280;50497;50.720;-2.084;2023-05-07T03:48:38;102572.53;;;11.31;100.00
64192;BME280;50497;50.720;-2.084;2023-05-07T03:51:04;102567.19;;;11.31;100.00
64192;BME280;50497;50.720;-2.084;2023-05-07T03:53:29;102553.78;;;11.31;100.00
64192;BME280;50497;50.720;-2.084;2023-05-07T03:55:58;102568.91;;;11.32;100.00
64192;BME280;50497;50.720;-2.084;2023-05-07T03:58:24;102572.47;;;11.32;100.00
64192;BME280;50497;50.720;-2.084;2023-05-07T04:00:53;102584.94;;;11.35;100.00
64192;BME280;50497;50.720;-2.084;2023-05-07T04:03:19;102589.19;;;11.45;100.00
64192;BME280;50497;50.720;-2.084;2023-05-07T04:05:47;102593.59;;;11.49;100.00
64192;BME280;50497;50.720;-2.084;2023-05-07T04:08:13;102595.47;;;11.44;100.00
64192;BME280;50497;50.720;-2.084;2023-05-07T04:10:38;102577.97;;;11.26;100.00
64192;BME280;50497;50.720;-2.084;2023-05-07T04:13:05;102591.16;;;11.35;100.00
64192;BME280;50497;50.720;-2.084;2023-05-07T04:15:35;102585.13;;;11.25;100.00
64192;BME280;50497;50.720;-2.084;2023-05-07T04:18:01;102559.66;;;11.06;100.00
64192;BME280;50497;50.720;-2.084;2023-05-07T04:20:27;102590.66;;;11.18;100.00
64192;BME280;50497;50.720;-2.084;2023-05-07T04:22:52;102596.94;;;11.15;100.00
64192;BME280;50497;50.720;-2.084;2023-05-07T04:25:18;102607.59;;;11.18;100.00
64192;BME280;50497;50.720;-2.084;2023-05-07T04:27:48;102610.28;;;11.18;100.00
64192;BME280;50497;50.720;-2.084;2023-05-07T04:30:14;102634.50;;;11.12;100.00
64192;BME280;50497;50.720;-2.084;2023-05-07T04:32:43;102647.75;;;11.20;100.00
64192;BME280;50497;50.720;-2.084;2023-05-07T04:35:13;102671.13;;;11.13;100.00
64192;BME280;50497;50.720;-2.084;2023-05-07T04:37:43;102676.47;;;11.13;100.00
64192;BME280;50497;50.720;-2.084;2023-05-07T04:40:12;102689.00;;;11.13;100.00
64192;BME280;50497;50.720;-2.084;2023-05-07T04:42:41;102688.09;;;11.12;100.00
64192;BME280;50497;50.720;-2.084;2023-05-07T04:45:10;102689.00;;;11.11;100.00
64192;BME280;50497;50.720;-2.084;2023-05-07T04:47:42;102707.53;;;11.23;100.00
64192;BME280;50497;50.720;-2.084;2023-05-07T04:50:08;102685.50;;;11.09;100.00
64192;BME280;50497;50.720;-2.084;2023-05-07T04:52:34;102724.63;;;11.18;100.00
64192;BME280;50497;50.720;-2.084;2023-05-07T04:55:04;102732.44;;;11.28;100.00
64192;BME280;50497;50.720;-2.084;2023-05-07T04:57:37;102732.44;;;11.28;100.00
64192;BME280;50497;50.720;-2.084;2023-05-07T05:00:05;102720.13;;;11.18;100.00
64192;BME280;50497;50.720;-2.084;2023-05-07T05:02:37;102719.38;;;11.10;100.00
64192;BME280;50497;50.720;-2.084;2023-05-07T05:05:02;102715.78;;;11.13;100.00
64192;BME280;50497;50.720;-2.084;2023-05-07T05:07:28;102725.50;;;11.17;100.00
64192;BME280;50497;50.720;-2.084;2023-05-07T05:09:54;102723.13;;;11.01;100.00
64192;BME280;50497;50.720;-2.084;2023-05-07T05:12:23;102729.13;;;11.16;100.00
64192;BME280;50497;50.720;-2.084;2023-05-07T05:14:48;102733.53;;;11.18;100.00
64192;BME280;50497;50.720;-2.084;2023-05-07T05:17:14;102748.69;;;11.19;100.00
64192;BME280;50497;50.720;-2.084;2023-05-07T05:19:40;102753.84;;;11.30;100.00
64192;BME280;50497;50.720;-2.084;2023-05-07T05:22:05;102763.69;;;11.30;100.00
64192;BME280;50497;50.720;-2.084;2023-05-07T05:24:31;102766.44;;;11.26;100.00
64192;BME280;50497;50.720;-2.084;2023-05-07T05:27:00;102750.56;;;11.16;100.00
64192;BME280;50497;50.720;-2.084;2023-05-07T05:29:27;102776.25;;;11.27;100.00
64192;BME280;50497;50.720;-2.084;2023-05-07T05:31:58;102766.38;;;11.30;100.00
64192;BME280;50497;50.720;-2.084;2023-05-07T05:34:24;102772.63;;;11.30;100.00
64192;BME280;50497;50.720;-2.084;2023-05-07T05:36:50;102751.13;;;11.33;100.00
64192;BME280;50497;50.720;-2.084;2023-05-07T05:39:19;102712.16;;;11.15;100.00
64192;BME280;50497;50.720;-2.084;2023-05-07T05:41:47;102719.22;;;11.21;100.00
64192;BME280;50497;50.720;-2.084;2023-05-07T05:44:18;102697.56;;;11.30;100.00
64192;BME280;50497;50.720;-2.084;2023-05-07T05:46:44;102675.28;;;11.30;100.00
64192;BME280;50497;50.720;-2.084;2023-05-07T05:49:10;102649.50;;;11.22;100.00
64192;BME280;50497;50.720;-2.084;2023-05-07T05:51:35;102619.34;;;11.13;100.00
64192;BME280;50497;50.720;-2.084;2023-05-07T05:54:00;102595.16;;;11.17;100.00
64192;BME280;50497;50.720;-2.084;2023-05-07T05:56:26;102610.00;;;11.32;100.00
64192;BME280;50497;50.720;-2.084;2023-05-07T05:58:52;102608.25;;;11.31;100.00
64192;BME280;50497;50.720;-2.084;2023-05-07T06:01:19;102602.53;;;11.48;100.00
64192;BME280;50497;50.720;-2.084;2023-05-07T06:03:45;102593.38;;;11.58;100.00
64192;BME280;50497;50.720;-2.084;2023-05-07T06:06:11;102585.13;;;11.68;100.00
64192;BME280;50497;50.720;-2.084;2023-05-07T06:08:36;102579.53;;;11.77;100.00
64192;BME280;50497;50.720;-2.084;2023-05-07T06:11:02;102566.94;;;11.82;100.00
64192;BME280;50497;50.720;-2.084;2023-05-07T06:13:28;102541.94;;;11.80;100.00
64192;BME280;50497;50.720;-2.084;2023-05-07T06:15:53;102515.91;;;11.83;100.00
64192;BME280;50497;50.720;-2.084;2023-05-07T06:18:19;102496.00;;;11.95;100.00
64192;BME280;50497;50.720;-2.084;2023-05-07T06:20:45;102466.59;;;11.91;100.00
64192;BME280;50497;50.720;-2.084;2023-05-07T06:23:10;102444.19;;;11.93;100.00
64192;BME280;50497;50.720;-2.084;2023-05-07T06:25:35;102427.34;;;11.87;100.00
64192;BME280;50497;50.720;-2.084;2023-05-07T06:28:01;102388.56;;;12.00;100.00
64192;BME280;50497;50.720;-2.084;2023-05-07T06:30:26;102352.25;;;11.87;100.00
64192;BME280;50497;50.720;-2.084;2023-05-07T06:32:52;102318.28;;;11.87;100.00
64192;BME280;50497;50.720;-2.084;2023-05-07T06:35:17;102302.44;;;12.11;100.00
64192;BME280;50497;50.720;-2.084;2023-05-07T06:37:44;102237.09;;;12.12;100.00
64192;BME280;50497;50.720;-2.084;2023-05-07T06:40:09;102205.91;;;12.09;100.00
64192;BME280;50497;50.720;-2.084;2023-05-07T06:42:36;102147.28;;;12.25;100.00
64192;BME280;50497;50.720;-2.084;2023-05-07T06:45:02;102104.34;;;12.25;100.00
64192;BME280;50497;50.720;-2.084;2023-05-07T06:47:28;102075.91;;;12.19;100.00
64192;BME280;50497;50.720;-2.084;2023-05-07T06:49:53;102045.84;;;12.35;100.00
64192;BME280;50497;50.720;-2.084;2023-05-07T06:52:19;102004.31;;;11.93;100.00
64192;BME280;50497;50.720;-2.084;2023-05-07T06:54:44;101996.78;;;12.31;100.00
64192;BME280;50497;50.720;-2.084;2023-05-07T06:57:10;101965.22;;;12.13;100.00
64192;BME280;50497;50.720;-2.084;2023-05-07T06:59:36;101950.78;;;12.42;100.00
64192;BME280;50497;50.720;-2.084;2023-05-07T07:02:01;101931.28;;;12.62;100.00
64192;BME280;50497;50.720;-2.084;2023-05-07T07:04:27;101918.06;;;12.56;100.00
64192;BME280;50497;50.720;-2.084;2023-05-07T07:06:53;101917.84;;;12.38;100.00
64192;BME280;50497;50.720;-2.084;2023-05-07T07:09:19;101913.63;;;12.55;100.00
64192;BME280;50497;50.720;-2.084;2023-05-07T07:11:45;101911.72;;;12.82;100.00
64192;BME280;50497;50.720;-2.084;2023-05-07T07:14:10;101905.72;;;12.75;100.00
64192;BME280;50497;50.720;-2.084;2023-05-07T07:16:36;101900.34;;;12.75;100.00
64192;BME280;50497;50.720;-2.084;2023-05-07T07:19:02;101906.63;;;12.51;100.00
64192;BME280;50497;50.720;-2.084;2023-05-07T07:21:27;101904.53;;;12.35;100.00
64192;BME280;50497;50.720;-2.084;2023-05-07T07:23:52;101918.38;;;12.96;100.00
64192;BME280;50497;50.720;-2.084;2023-05-07T07:26:18;101897.75;;;12.96;100.00
64192;BME280;50497;50.720;-2.084;2023-05-07T07:28:45;101915.03;;;13.12;100.00
64192;BME280;50497;50.720;-2.084;2023-05-07T07:31:11;101936.69;;;13.08;100.00
64192;BME280;50497;50.720;-2.084;2023-05-07T07:33:37;101919.03;;;13.02;100.00
64192;BME280;50497;50.720;-2.084;2023-05-07T07:36:03;101961.63;;;13.37;100.00
64192;BME280;50497;50.720;-2.084;2023-05-07T07:38:28;101978.22;;;13.23;100.00
64192;BME280;50497;50.720;-2.084;2023-05-07T07:40:54;101980.50;;;13.57;100.00
64192;BME280;50497;50.720;-2.084;2023-05-07T07:43:20;102001.38;;;13.73;100.00
64192;BME280;50497;50.720;-2.084;2023-05-07T07:45:45;102030.56;;;13.61;100.00
64192;BME280;50497;50.720;-2.084;2023-05-07T07:48:11;102055.69;;;13.60;100.00
64192;BME280;50497;50.720;-2.084;2023-05-07T07:50:36;102035.88;;;13.39;100.00
64192;BME280;50497;50.720;-2.084;2023-05-07T07:53:02;102045.44;;;13.70;100.00
64192;BME280;50497;50.720;-2.084;2023-05-07T07:55:28;102050.81;;;13.70;100.00
64192;BME280;50497;50.720;-2.084;2023-05-07T07:57:53;102053.78;;;14.08;100.00
64192;BME280;50497;50.720;-2.084;2023-05-07T08:00:19;102065.69;;;13.57;100.00
64192;BME280;50497;50.720;-2.084;2023-05-07T08:02:45;102059.28;;;14.05;100.00
64192;BME280;50497;50.720;-2.084;2023-05-07T08:05:10;102029.59;;;14.49;100.00
64192;BME280;50497;50.720;-2.084;2023-05-07T08:07:36;102074.28;;;14.75;100.00
64192;BME280;50497;50.720;-2.084;2023-05-07T08:10:01;102063.22;;;15.42;100.00
64192;BME280;50497;50.720;-2.084;2023-05-07T08:12:27;102148.16;;;15.92;100.00
64192;BME280;50497;50.720;-2.084;2023-05-07T08:14:53;102220.19;;;15.29;100.00
64192;BME280;50497;50.720;-2.084;2023-05-07T08:17:19;102243.25;;;15.16;100.00
64192;BME280;50497;50.720;-2.084;2023-05-07T08:19:48;102213.84;;;15.30;100.00
64192;BME280;50497;50.720;-2.084;2023-05-07T08:22:13;102237.78;;;15.38;100.00
64192;BME280;50497;50.720;-2.084;2023-05-07T08:24:42;102238.03;;;15.94;100.00
64192;BME280;50497;50.720;-2.084;2023-05-07T08:27:11;102277.91;;;16.26;100.00
64192;BME280;50497;50.720;-2.084;2023-05-07T08:29:37;102329.97;;;16.68;100.00
64192;BME280;50497;50.720;-2.084;2023-05-07T08:32:02;102342.06;;;16.99;100.00
64192;BME280;50497;50.720;-2.084;2023-05-07T08:34:32;102392.59;;;16.78;100.00
64192;BME280;50497;50.720;-2.084;2023-05-07T08:37:00;102409.34;;;16.86;100.00
64192;BME280;50497;50.720;-2.084;2023-05-07T08:39:25;102413.38;;;16.17;100.00
64192;BME280;50497;50.720;-2.084;2023-05-07T08:41:55;102380.22;;;15.93;100.00
64192;BME280;50497;50.720;-2.084;2023-05-07T08:44:28;102329.38;;;17.18;100.00
64192;BME280;50497;50.720;-2.084;2023-05-07T08:46:59;102398.59;;;16.05;100.00
64192;BME280;50497;50.720;-2.084;2023-05-07T08:49:31;102386.66;;;16.90;100.00
64192;BME280;50497;50.720;-2.084;2023-05-07T08:52:01;102405.28;;;17.69;100.00
64192;BME280;50497;50.720;-2.084;2023-05-07T08:54:27;102438.00;;;17.65;100.00
64192;BME280;50497;50.720;-2.084;2023-05-07T08:56:57;102457.59;;;17.33;100.00
64192;BME280;50497;50.720;-2.084;2023-05-07T08:59:26;102485.06;;;17.99;100.00
64192;BME280;50497;50.720;-2.084;2023-05-07T09:01:51;102506.00;;;18.13;100.00
64192;BME280;50497;50.720;-2.084;2023-05-07T09:04:21;102507.34;;;19.07;100.00
64192;BME280;50497;50.720;-2.084;2023-05-07T09:06:47;102562.84;;;19.67;100.00
64192;BME280;50497;50.720;-2.084;2023-05-07T09:09:18;102628.72;;;19.04;100.00
64192;BME280;50497;50.720;-2.084;2023-05-07T09:11:46;102605.22;;;18.33;100.00
64192;BME280;50497;50.720;-2.084;2023-05-07T09:14:21;102585.09;;;18.38;100.00
64192;BME280;50497;50.720;-2.084;2023-05-07T09:16:47;102589.06;;;17.57;100.00
64192;BME280;50497;50.720;-2.084;2023-05-07T09:19:24;102569.53;;;17.88;100.00
64192;BME280;50497;50.720;-2.084;2023-05-07T09:22:04;102566.44;;;17.96;100.00
64192;BME280;50497;50.720;-2.084;2023-05-07T09:24:33;102575.78;;;17.31;100.00
64192;BME280;50497;50.720;-2.084;2023-05-07T09:27:04;102583.59;;;18.50;100.00
64192;BME280;50497;50.720;-2.084;2023-05-07T09:29:37;102627.59;;;19.90;100.00
64192;BME280;50497;50.720;-2.084;2023-05-07T09:32:06;102692.13;;;20.19;100.00
64192;BME280;50497;50.720;-2.084;2023-05-07T09:34:35;102710.84;;;18.71;100.00
64192;BME280;50497;50.720;-2.084;2023-05-07T09:37:06;102675.81;;;19.87;100.00
64192;BME280;50497;50.720;-2.084;2023-05-07T09:39:46;102669.34;;;20.37;100.00
64192;BME280;50497;50.720;-2.084;2023-05-07T09:42:31;102703.50;;;19.78;100.00
64192;BME280;50497;50.720;-2.084;2023-05-07T09:45:01;102667.13;;;18.96;100.00
64192;BME280;50497;50.720;-2.084;2023-05-07T09:47:41;102662.41;;;19.84;100.00
64192;BME280;50497;50.720;-2.084;2023-05-07T09:50:10;102676.84;;;20.48;100.00
64192;BME280;50497;50.720;-2.084;2023-05-07T09:52:38;102709.81;;;20.42;100.00
64192;BME280;50497;50.720;-2.084;2023-05-07T09:55:06;102617.97;;;19.02;100.00
64192;BME280;50497;50.720;-2.084;2023-05-07T09:57:37;102558.19;;;19.69;100.00
64192;BME280;50497;50.720;-2.084;2023-05-07T10:00:08;102584.25;;;20.96;100.00
64192;BME280;50497;50.720;-2.084;2023-05-07T10:02:36;102538.38;;;20.15;100.00
64192;BME280;50497;50.720;-2.084;2023-05-07T10:05:03;102489.38;;;19.86;100.00
64192;BME280;50497;50.720;-2.084;2023-05-07T10:07:37;102501.38;;;19.66;100.00
64192;BME280;50497;50.720;-2.084;2023-05-07T10:10:08;102492.50;;;19.62;100.00
64192;BME280;50497;50.720;-2.084;2023-05-07T10:12:34;102530.34;;;18.82;100.00
64192;BME280;50497;50.720;-2.084;2023-05-07T10:15:08;102527.63;;;19.49;100.00
64192;BME280;50497;50.720;-2.084;2023-05-07T10:17:36;102521.09;;;20.46;100.00
64192;BME280;50497;50.720;-2.084;2023-05-07T10:20:02;102504.34;;;19.61;100.00
64192;BME280;50497;50.720;-2.084;2023-05-07T10:22:31;102485.84;;;19.52;100.00
64192;BME280;50497;50.720;-2.084;2023-05-07T10:24:59;102503.97;;;19.35;100.00
64192;BME280;50497;50.720;-2.084;2023-05-07T10:27:29;102498.38;;;18.89;100.00
64192;BME280;50497;50.720;-2.084;2023-05-07T10:32:40;102488.69;;;18.85;100.00
64192;BME280;50497;50.720;-2.084;2023-05-07T10:35:18;102467.47;;;19.41;100.00
64192;BME280;50497;50.720;-2.084;2023-05-07T10:37:48;102480.94;;;19.27;100.00
64192;BME280;50497;50.720;-2.084;2023-05-07T10:40:15;102487.41;;;19.08;100.00
64192;BME280;50497;50.720;-2.084;2023-05-07T10:43:01;102489.78;;;18.81;100.00
64192;BME280;50497;50.720;-2.084;2023-05-07T10:45:32;102515.03;;;18.48;100.00
64192;BME280;50497;50.720;-2.084;2023-05-07T10:48:19;102510.00;;;18.58;100.00
64192;BME280;50497;50.720;-2.084;2023-05-07T10:50:49;102589.31;;;18.26;100.00
64192;BME280;50497;50.720;-2.084;2023-05-07T10:53:35;102584.38;;;19.38;100.00
64192;BME280;50497;50.720;-2.084;2023-05-07T10:58:50;102591.53;;;19.06;100.00
64192;BME280;50497;50.720;-2.084;2023-05-07T11:04:23;102606.09;;;19.20;100.00
64192;BME280;50497;50.720;-2.084;2023-05-07T11:15:09;102619.16;;;17.88;100.00
64192;BME280;50497;50.720;-2.084;2023-05-07T11:17:55;102598.38;;;18.25;100.00
64192;BME280;50497;50.720;-2.084;2023-05-07T11:26:07;102588.28;;;18.64;100.00
64192;BME280;50497;50.720;-2.084;2023-05-07T11:28:38;102633.44;;;18.28;100.00
64192;BME280;50497;50.720;-2.084;2023-05-07T11:31:07;102642.38;;;18.31;100.00
64192;BME280;50497;50.720;-2.084;2023-05-07T11:33:34;102645.59;;;18.39;100.00
64192;BME280;50497;50.720;-2.084;2023-05-07T11:36:02;102649.84;;;18.44;100.00
64192;BME280;50497;50.720;-2.084;2023-05-07T11:38:30;102654.13;;;18.85;100.00
64192;BME280;50497;50.720;-2.084;2023-05-07T11:40:57;102680.03;;;20.08;100.00
64192;BME280;50497;50.720;-2.084;2023-05-07T11:43:24;102602.16;;;20.23;100.00
64192;BME280;50497;50.720;-2.084;2023-05-07T11:45:53;102549.75;;;20.96;100.00
64192;BME280;50497;50.720;-2.084;2023-05-07T11:48:21;102392.44;;;20.60;100.00
64192;BME280;50497;50.720;-2.084;2023-05-07T11:50:52;102212.50;;;20.53;100.00
64192;BME280;50497;50.720;-2.084;2023-05-07T11:53:24;102291.19;;;20.13;100.00
64192;BME280;50497;50.720;-2.084;2023-05-07T11:55:56;102296.00;;;19.49;100.00
64192;BME280;50497;50.720;-2.084;2023-05-07T11:58:26;102278.25;;;19.13;100.00
64192;BME280;50497;50.720;-2.084;2023-05-07T12:00:53;102298.91;;;19.15;100.00
64192;BME280;50497;50.720;-2.084;2023-05-07T12:03:20;102437.25;;;19.47;100.00
64192;BME280;50497;50.720;-2.084;2023-05-07T12:05:47;102463.59;;;19.93;100.00
64192;BME280;50497;50.720;-2.084;2023-05-07T12:08:18;102454.81;;;20.18;100.00
64192;BME280;50497;50.720;-2.084;2023-05-07T12:10:45;102443.00;;;19.89;100.00
64192;BME280;50497;50.720;-2.084;2023-05-07T12:15:46;102397.72;;;20.77;100.00
64192;BME280;50497;50.720;-2.084;2023-05-07T12:18:11;102317.19;;;21.69;100.00
64192;BME280;50497;50.720;-2.084;2023-05-07T12:20:39;101742.44;;;21.22;100.00
64192;BME280;50497;50.720;-2.084;2023-05-07T12:23:05;101540.22;;;21.56;100.00
64192;BME280;50497;50.720;-2.084;2023-05-07T12:25:40;101486.06;;;20.37;100.00
64192;BME280;50497;50.720;-2.084;2023-05-07T12:28:14;101409.09;;;21.06;100.00
64192;BME280;50497;50.720;-2.084;2023-05-07T12:30:44;101423.31;;;20.75;100.00
64192;BME280;50497;50.720;-2.084;2023-05-07T12:33:11;101433.63;;;20.59;100.00
64192;BME280;50497;50.720;-2.084;2023-05-07T12:35:37;101413.19;;;21.66;100.00
64192;BME280;50497;50.720;-2.084;2023-05-07T12:38:15;101400.75;;;23.21;100.00
64192;BME280;50497;50.720;-2.084;2023-05-07T12:40:46;101440.75;;;22.17;100.00
64192;BME280;50497;50.720;-2.084;2023-05-07T12:43:20;101209.47;;;21.07;100.00
64192;BME280;50497;50.720;-2.084;2023-05-07T12:45:50;101162.88;;;21.00;100.00
64192;BME280;50497;50.720;-2.084;2023-05-07T12:48:16;101180.16;;;21.31;100.00
64192;BME280;50497;50.720;-2.084;2023-05-07T12:50:42;101234.94;;;21.38;100.00
64192;BME280;50497;50.720;-2.084;2023-05-07T12:53:09;101307.88;;;21.88;100.00
64192;BME280;50497;50.720;-2.084;2023-05-07T12:55:48;101196.59;;;22.14;100.00
64192;BME280;50497;50.720;-2.084;2023-05-07T13:00:44;100864.28;;;22.42;100.00